sensor_id;sensor_type;location;lat;lon;timestamp;P1;durP1;ratioP1;P2;durP2;ratioP2
32228;SDS011;18717;48.034;11.186;2024-02-04T00:01:07;11.95;;;10.98;;
32228;SDS011;18717;48.034;11.186;2024-02-04T00:03:35;12.00;;;11.00;;
32228;SDS011;18717;48.034;11.186;2024-02-04T00:06:03;12.20;;;11.27;;
32228;SDS011;18717;48.034;11.186;2024-02-04T00:08:31;12.30;;;11.05;;
32228;SDS011;18717;48.034;11.186;2024-02-04T00:10:58;11.65;;;10.65;;
32228;SDS011;18717;48.034;11.186;2024-02-04T00:13:26;11.50;;;10.52;;
32228;SDS011;18717;48.034;11.186;2024-02-04T00:15:54;12.30;;;11.30;;
32228;SDS011;18717;48.034;11.186;2024-02-04T00:18:29;12.98;;;11.77;;
32228;SDS011;18717;48.034;11.186;2024-02-04T00:20:56;15.50;;;11.43;;
32228;SDS011;18717;48.034;11.186;2024-02-04T00:23:24;12.85;;;11.68;;
32228;SDS011;18717;48.034;11.186;2024-02-04T00:25:52;11.10;;;10.20;;
32228;SDS011;18717;48.034;11.186;2024-02-04T00:28:20;13.05;;;11.85;;
32228;SDS011;18717;48.034;11.186;2024-02-04T00:30:47;12.13;;;11.00;;
32228;SDS011;18717;48.034;11.186;2024-02-04T00:33:16;12.05;;;10.90;;
32228;SDS011;18717;48.034;11.186;2024-02-04T00:35:45;12.10;;;11.00;;
32228;SDS011;18717;48.034;11.186;2024-02-04T00:38:13;11.63;;;10.73;;
32228;SDS011;18717;48.034;11.186;2024-02-04T00:40:41;11.10;;;10.15;;
32228;SDS011;18717;48.034;11.186;2024-02-04T00:43:09;12.05;;;11.02;;
32228;SDS011;18717;48.034;11.186;2024-02-04T00:45:36;12.85;;;11.70;;
32228;SDS011;18717;48.034;11.186;2024-02-04T00:48:04;12.63;;;11.55;;
32228;SDS011;18717;48.034;11.186;2024-02-04T00:50:34;12.65;;;11.45;;
32228;SDS011;18717;48.034;11.186;2024-02-04T00:53:03;12.25;;;11.15;;
32228;SDS011;18717;48.034;11.186;2024-02-04T00:55:31;12.70;;;11.50;;
32228;SDS011;18717;48.034;11.186;2024-02-04T00:57:59;11.70;;;10.50;;
32228;SDS011;18717;48.034;11.186;2024-02-04T01:00:28;12.93;;;11.75;;
32228;SDS011;18717;48.034;11.186;2024-02-04T01:02:56;12.38;;;11.15;;
32228;SDS011;18717;48.034;11.186;2024-02-04T01:05:24;11.93;;;11.02;;
32228;SDS011;18717;48.034;11.186;2024-02-04T01:07:52;11.75;;;10.75;;
32228;SDS011;18717;48.034;11.186;2024-02-04T01:10:21;11.82;;;10.82;;
32228;SDS011;18717;48.034;11.186;2024-02-04T01:12:49;12.27;;;11.13;;
32228;SDS011;18717;48.034;11.186;2024-02-04T01:15:17;12.05;;;11.02;;
32228;SDS011;18717;48.034;11.186;2024-02-04T01:17:45;12.40;;;11.35;;
32228;SDS011;18717;48.034;11.186;2024-02-04T01:20:13;12.45;;;11.45;;
32228;SDS011;18717;48.034;11.186;2024-02-04T01:22:41;11.88;;;10.68;;
32228;SDS011;18717;48.034;11.186;2024-02-04T01:25:08;11.45;;;10.45;;
32228;SDS011;18717;48.034;11.186;2024-02-04T01:27:37;11.95;;;10.88;;
32228;SDS011;18717;48.034;11.186;2024-02-04T01:30:06;13.93;;;11.73;;
32228;SDS011;18717;48.034;11.186;2024-02-04T01:32:34;14.18;;;12.77;;
32228;SDS011;18717;48.034;11.186;2024-02-04T01:35:02;14.68;;;13.10;;
32228;SDS011;18717;48.034;11.186;2024-02-04T01:37:30;13.50;;;12.20;;
32228;SDS011;18717;48.034;11.186;2024-02-04T01:39:58;15.85;;;12.27;;
32228;SDS011;18717;48.034;11.186;2024-02-04T01:42:26;12.45;;;11.25;;
32228;SDS011;18717;48.034;11.186;2024-02-04T01:44:55;13.70;;;12.40;;
32228;SDS011;18717;48.034;11.186;2024-02-04T01:47:23;14.43;;;13.00;;
32228;SDS011;18717;48.034;11.186;2024-02-04T01:49:51;13.35;;;11.93;;
32228;SDS011;18717;48.034;11.186;2024-02-04T01:52:19;14.48;;;12.82;;
32228;SDS011;18717;48.034;11.186;2024-02-04T01:54:46;14.63;;;12.75;;
32228;SDS011;18717;48.034;11.186;2024-02-04T01:57:15;13.82;;;11.98;;
32228;SDS011;18717;48.034;11.186;2024-02-04T01:59:44;15.25;;;13.05;;
32228;SDS011;18717;48.034;11.186;2024-02-04T02:02:13;14.25;;;12.45;;
32228;SDS011;18717;48.034;11.186;2024-02-04T02:04:41;13.68;;;12.25;;
32228;SDS011;18717;48.034;11.186;2024-02-04T02:07:09;13.40;;;12.15;;
32228;SDS011;18717;48.034;11.186;2024-02-04T02:09:39;15.10;;;12.68;;
32228;SDS011;18717;48.034;11.186;2024-02-04T02:12:07;13.88;;;12.50;;
32228;SDS011;18717;48.034;11.186;2024-02-04T02:14:38;14.43;;;13.05;;
32228;SDS011;18717;48.034;11.186;2024-02-04T02:17:10;15.10;;;13.07;;
32228;SDS011;18717;48.034;11.186;2024-02-04T02:19:46;14.02;;;12.02;;
32228;SDS011;18717;48.034;11.186;2024-02-04T02:22:22;13.65;;;12.35;;
32228;SDS011;18717;48.034;11.186;2024-02-04T02:24:54;13.60;;;12.13;;
32228;SDS011;18717;48.034;11.186;2024-02-04T02:27:23;13.88;;;12.48;;
32228;SDS011;18717;48.034;11.186;2024-02-04T02:29:51;13.48;;;12.20;;
32228;SDS011;18717;48.034;11.186;2024-02-04T02:32:19;13.98;;;12.50;;
32228;SDS011;18717;48.034;11.186;2024-02-04T02:34:47;14.05;;;12.63;;
32228;SDS011;18717;48.034;11.186;2024-02-04T02:37:18;15.93;;;12.52;;
32228;SDS011;18717;48.034;11.186;2024-02-04T02:39:51;14.05;;;11.82;;
32228;SDS011;18717;48.034;11.186;2024-02-04T02:42:24;14.88;;;12.15;;
32228;SDS011;18717;48.034;11.186;2024-02-04T02:44:53;13.50;;;12.25;;
32228;SDS011;18717;48.034;11.186;2024-02-04T02:47:22;14.70;;;12.55;;
32228;SDS011;18717;48.034;11.186;2024-02-04T02:49:51;14.43;;;12.90;;
32228;SDS011;18717;48.034;11.186;2024-02-04T02:52:19;13.80;;;12.38;;
32228;SDS011;18717;48.034;11.186;2024-02-04T02:54:46;14.30;;;12.65;;
32228;SDS011;18717;48.034;11.186;2024-02-04T02:57:16;13.23;;;11.82;;
32228;SDS011;18717;48.034;11.186;2024-02-04T02:59:43;13.32;;;12.07;;
32228;SDS011;18717;48.034;11.186;2024-02-04T03:02:11;17.08;;;12.45;;
32228;SDS011;18717;48.034;11.186;2024-02-04T03:04:40;13.85;;;12.15;;
32228;SDS011;18717;48.034;11.186;2024-02-04T03:07:08;13.75;;;12.35;;
32228;SDS011;18717;48.034;11.186;2024-02-04T03:09:35;14.48;;;12.20;;
32228;SDS011;18717;48.034;11.186;2024-02-04T03:12:03;13.68;;;12.32;;
32228;SDS011;18717;48.034;11.186;2024-02-04T03:14:33;13.90;;;12.55;;
32228;SDS011;18717;48.034;11.186;2024-02-04T03:17:00;13.45;;;12.15;;
32228;SDS011;18717;48.034;11.186;2024-02-04T03:19:28;12.57;;;11.27;;
32228;SDS011;18717;48.034;11.186;2024-02-04T03:21:56;12.77;;;11.48;;
32228;SDS011;18717;48.034;11.186;2024-02-04T03:24:24;13.90;;;12.35;;
32228;SDS011;18717;48.034;11.186;2024-02-04T03:26:52;14.15;;;12.60;;
32228;SDS011;18717;48.034;11.186;2024-02-04T03:29:19;12.38;;;11.18;;
32228;SDS011;18717;48.034;11.186;2024-02-04T03:31:48;14.10;;;12.30;;
32228;SDS011;18717;48.034;11.186;2024-02-04T03:34:16;13.32;;;11.98;;
32228;SDS011;18717;48.034;11.186;2024-02-04T03:36:44;13.57;;;12.38;;
32228;SDS011;18717;48.034;11.186;2024-02-04T03:39:12;13.05;;;11.65;;
32228;SDS011;18717;48.034;11.186;2024-02-04T03:41:40;12.63;;;11.50;;
32228;SDS011;18717;48.034;11.186;2024-02-04T03:44:08;13.90;;;11.85;;
32228;SDS011;18717;48.034;11.186;2024-02-04T03:46:35;13.15;;;10.90;;
32228;SDS011;18717;48.034;11.186;2024-02-04T03:49:07;13.73;;;11.95;;
32228;SDS011;18717;48.034;11.186;2024-02-04T03:51:35;11.55;;;10.55;;
32228;SDS011;18717;48.034;11.186;2024-02-04T03:54:03;12.55;;;11.32;;
32228;SDS011;18717;48.034;11.186;2024-02-04T03:56:31;11.50;;;10.55;;
32228;SDS011;18717;48.034;11.186;2024-02-04T03:58:58;12.75;;;11.55;;
32228;SDS011;18717;48.034;11.186;2024-02-04T04:01:26;11.77;;;10.48;;
32228;SDS011;18717;48.034;11.186;2024-02-04T04:03:54;17.25;;;11.25;;
32228;SDS011;18717;48.034;11.186;2024-02-04T04:06:23;11.25;;;10.38;;
32228;SDS011;18717;48.034;11.186;2024-02-04T04:08:51;10.65;;;9.73;;
32228;SDS011;18717;48.034;11.186;2024-02-04T04:11:19;11.23;;;10.32;;
32228;SDS011;18717;48.034;11.186;2024-02-04T04:13:46;11.77;;;10.45;;
32228;SDS011;18717;48.034;11.186;2024-02-04T04:16:15;10.90;;;10.00;;
32228;SDS011;18717;48.034;11.186;2024-02-04T04:18:48;11.15;;;9.93;;
32228;SDS011;18717;48.034;11.186;2024-02-04T04:21:16;12.50;;;10.23;;
32228;SDS011;18717;48.034;11.186;2024-02-04T04:23:45;10.43;;;9.43;;
32228;SDS011;18717;48.034;11.186;2024-02-04T04:26:12;10.10;;;9.20;;
32228;SDS011;18717;48.034;11.186;2024-02-04T04:28:40;10.38;;;9.57;;
32228;SDS011;18717;48.034;11.186;2024-02-04T04:31:08;11.43;;;10.43;;
32228;SDS011;18717;48.034;11.186;2024-02-04T04:33:36;10.55;;;9.52;;
32228;SDS011;18717;48.034;11.186;2024-02-04T04:36:04;9.82;;;9.13;;
32228;SDS011;18717;48.034;11.186;2024-02-04T04:38:32;10.40;;;9.60;;
32228;SDS011;18717;48.034;11.186;2024-02-04T04:41:02;10.20;;;9.30;;
32228;SDS011;18717;48.034;11.186;2024-02-04T04:43:29;9.82;;;9.13;;
32228;SDS011;18717;48.034;11.186;2024-02-04T04:45:57;10.05;;;9.25;;
32228;SDS011;18717;48.034;11.186;2024-02-04T04:48:25;10.07;;;9.13;;
32228;SDS011;18717;48.034;11.186;2024-02-04T04:50:53;10.15;;;9.15;;
32228;SDS011;18717;48.034;11.186;2024-02-04T04:53:20;9.80;;;9.10;;
32228;SDS011;18717;48.034;11.186;2024-02-04T04:55:48;11.27;;;9.25;;
32228;SDS011;18717;48.034;11.186;2024-02-04T04:58:17;10.77;;;9.88;;
32228;SDS011;18717;48.034;11.186;2024-02-04T05:00:45;9.95;;;9.07;;
32228;SDS011;18717;48.034;11.186;2024-02-04T05:03:13;9.32;;;8.40;;
32228;SDS011;18717;48.034;11.186;2024-02-04T05:05:40;10.43;;;9.43;;
32228;SDS011;18717;48.034;11.186;2024-02-04T05:08:08;10.65;;;9.68;;
32228;SDS011;18717;48.034;11.186;2024-02-04T05:10:36;9.73;;;9.02;;
32228;SDS011;18717;48.034;11.186;2024-02-04T05:13:03;10.50;;;9.32;;
32228;SDS011;18717;48.034;11.186;2024-02-04T05:15:33;9.60;;;9.00;;
32228;SDS011;18717;48.034;11.186;2024-02-04T05:18:01;11.57;;;9.80;;
32228;SDS011;18717;48.034;11.186;2024-02-04T05:20:30;10.38;;;9.57;;
32228;SDS011;18717;48.034;11.186;2024-02-04T05:22:58;10.50;;;9.60;;
32228;SDS011;18717;48.034;11.186;2024-02-04T05:25:26;10.07;;;9.32;;
32228;SDS011;18717;48.034;11.186;2024-02-04T05:27:53;10.18;;;9.40;;
32228;SDS011;18717;48.034;11.186;2024-02-04T05:30:21;10.32;;;9.63;;
32228;SDS011;18717;48.034;11.186;2024-02-04T05:32:50;9.55;;;8.80;;
32228;SDS011;18717;48.034;11.186;2024-02-04T05:35:18;10.57;;;9.60;;
32228;SDS011;18717;48.034;11.186;2024-02-04T05:37:46;10.68;;;9.88;;
32228;SDS011;18717;48.034;11.186;2024-02-04T05:40:14;10.20;;;9.40;;
32228;SDS011;18717;48.034;11.186;2024-02-04T05:42:43;10.05;;;9.27;;
32228;SDS011;18717;48.034;11.186;2024-02-04T05:45:11;10.50;;;9.63;;
32228;SDS011;18717;48.034;11.186;2024-02-04T05:47:39;13.27;;;10.43;;
32228;SDS011;18717;48.034;11.186;2024-02-04T05:50:09;10.05;;;9.25;;
32228;SDS011;18717;48.034;11.186;2024-02-04T05:52:37;9.98;;;9.18;;
32228;SDS011;18717;48.034;11.186;2024-02-04T05:55:05;11.95;;;10.95;;
32228;SDS011;18717;48.034;11.186;2024-02-04T05:57:34;10.45;;;9.43;;
32228;SDS011;18717;48.034;11.186;2024-02-04T06:00:02;9.63;;;8.75;;
32228;SDS011;18717;48.034;11.186;2024-02-04T06:02:30;11.18;;;10.02;;
32228;SDS011;18717;48.034;11.186;2024-02-04T06:04:58;10.75;;;9.60;;
32228;SDS011;18717;48.034;11.186;2024-02-04T06:07:27;10.63;;;9.70;;
32228;SDS011;18717;48.034;11.186;2024-02-04T06:09:55;13.63;;;10.30;;
32228;SDS011;18717;48.034;11.186;2024-02-04T06:12:23;12.60;;;10.50;;
32228;SDS011;18717;48.034;11.186;2024-02-04T06:14:51;12.10;;;10.85;;
32228;SDS011;18717;48.034;11.186;2024-02-04T06:17:19;12.05;;;10.95;;
32228;SDS011;18717;48.034;11.186;2024-02-04T06:19:47;14.32;;;10.73;;
32228;SDS011;18717;48.034;11.186;2024-02-04T06:22:15;11.32;;;10.32;;
32228;SDS011;18717;48.034;11.186;2024-02-04T06:24:44;12.63;;;11.48;;
32228;SDS011;18717;48.034;11.186;2024-02-04T06:27:12;11.55;;;10.55;;
32228;SDS011;18717;48.034;11.186;2024-02-04T06:29:39;13.10;;;11.63;;
32228;SDS011;18717;48.034;11.186;2024-02-04T06:32:07;13.93;;;11.20;;
32228;SDS011;18717;48.034;11.186;2024-02-04T06:34:35;17.00;;;11.13;;
32228;SDS011;18717;48.034;11.186;2024-02-04T06:37:03;12.80;;;10.23;;
32228;SDS011;18717;48.034;11.186;2024-02-04T06:39:31;17.33;;;11.65;;
32228;SDS011;18717;48.034;11.186;2024-02-04T06:42:00;13.32;;;11.30;;
32228;SDS011;18717;48.034;11.186;2024-02-04T06:44:27;13.05;;;11.68;;
32228;SDS011;18717;48.034;11.186;2024-02-04T06:46:55;15.05;;;11.38;;
32228;SDS011;18717;48.034;11.186;2024-02-04T06:49:23;12.82;;;11.48;;
32228;SDS011;18717;48.034;11.186;2024-02-04T06:51:52;16.02;;;11.18;;
32228;SDS011;18717;48.034;11.186;2024-02-04T06:54:23;23.65;;;14.95;;
32228;SDS011;18717;48.034;11.186;2024-02-04T06:56:51;14.32;;;11.95;;
32228;SDS011;18717;48.034;11.186;2024-02-04T06:59:20;11.98;;;10.73;;
32228;SDS011;18717;48.034;11.186;2024-02-04T07:01:48;16.92;;;11.70;;
32228;SDS011;18717;48.034;11.186;2024-02-04T07:04:19;17.70;;;12.68;;
32228;SDS011;18717;48.034;11.186;2024-02-04T07:06:48;14.70;;;11.73;;
32228;SDS011;18717;48.034;11.186;2024-02-04T07:09:15;15.52;;;11.55;;
32228;SDS011;18717;48.034;11.186;2024-02-04T07:11:42;16.85;;;12.40;;
32228;SDS011;18717;48.034;11.186;2024-02-04T07:14:10;19.27;;;11.90;;
32228;SDS011;18717;48.034;11.186;2024-02-04T07:16:39;13.98;;;12.35;;
32228;SDS011;18717;48.034;11.186;2024-02-04T07:19:07;13.50;;;12.07;;
32228;SDS011;18717;48.034;11.186;2024-02-04T07:21:35;13.00;;;11.82;;
32228;SDS011;18717;48.034;11.186;2024-02-04T07:24:05;20.92;;;12.27;;
32228;SDS011;18717;48.034;11.186;2024-02-04T07:26:33;13.35;;;11.80;;
32228;SDS011;18717;48.034;11.186;2024-02-04T07:29:01;17.98;;;13.80;;
32228;SDS011;18717;48.034;11.186;2024-02-04T07:31:28;22.33;;;12.88;;
32228;SDS011;18717;48.034;11.186;2024-02-04T07:33:57;15.93;;;11.90;;
32228;SDS011;18717;48.034;11.186;2024-02-04T07:36:25;18.13;;;14.70;;
32228;SDS011;18717;48.034;11.186;2024-02-04T07:38:53;20.95;;;13.65;;
32228;SDS011;18717;48.034;11.186;2024-02-04T07:41:21;21.33;;;14.23;;
32228;SDS011;18717;48.034;11.186;2024-02-04T07:43:49;13.90;;;11.82;;
32228;SDS011;18717;48.034;11.186;2024-02-04T07:46:17;14.25;;;11.93;;
32228;SDS011;18717;48.034;11.186;2024-02-04T07:48:45;19.63;;;12.23;;
32228;SDS011;18717;48.034;11.186;2024-02-04T07:51:14;15.52;;;11.82;;
32228;SDS011;18717;48.034;11.186;2024-02-04T07:53:42;14.00;;;12.48;;
32228;SDS011;18717;48.034;11.186;2024-02-04T07:56:10;18.23;;;12.23;;
32228;SDS011;18717;48.034;11.186;2024-02-04T07:58:38;15.18;;;12.15;;
32228;SDS011;18717;48.034;11.186;2024-02-04T08:01:05;14.50;;;12.00;;
32228;SDS011;18717;48.034;11.186;2024-02-04T08:03:33;17.15;;;12.77;;
32228;SDS011;18717;48.034;11.186;2024-02-04T08:06:01;13.57;;;11.25;;
32228;SDS011;18717;48.034;11.186;2024-02-04T08:08:30;17.65;;;13.63;;
32228;SDS011;18717;48.034;11.186;2024-02-04T08:10:59;22.58;;;13.02;;
32228;SDS011;18717;48.034;11.186;2024-02-04T08:13:27;18.52;;;12.75;;
32228;SDS011;18717;48.034;11.186;2024-02-04T08:15:57;16.98;;;13.07;;
32228;SDS011;18717;48.034;11.186;2024-02-04T08:18:25;19.55;;;12.63;;
32228;SDS011;18717;48.034;11.186;2024-02-04T08:20:53;13.38;;;12.02;;
32228;SDS011;18717;48.034;11.186;2024-02-04T08:23:21;14.73;;;12.68;;
32228;SDS011;18717;48.034;11.186;2024-02-04T08:25:50;21.48;;;13.20;;
32228;SDS011;18717;48.034;11.186;2024-02-04T08:28:18;13.88;;;12.45;;
32228;SDS011;18717;48.034;11.186;2024-02-04T08:30:46;18.25;;;12.82;;
32228;SDS011;18717;48.034;11.186;2024-02-04T08:33:14;14.98;;;12.52;;
32228;SDS011;18717;48.034;11.186;2024-02-04T08:35:41;15.73;;;12.15;;
32228;SDS011;18717;48.034;11.186;2024-02-04T08:38:09;16.75;;;12.75;;
32228;SDS011;18717;48.034;11.186;2024-02-04T08:40:37;14.02;;;12.55;;
32228;SDS011;18717;48.034;11.186;2024-02-04T08:43:06;13.63;;;11.57;;
32228;SDS011;18717;48.034;11.186;2024-02-04T08:45:34;15.10;;;13.48;;
32228;SDS011;18717;48.034;11.186;2024-02-04T08:48:02;18.05;;;12.45;;
32228;SDS011;18717;48.034;11.186;2024-02-04T08:50:30;17.90;;;12.07;;
32228;SDS011;18717;48.034;11.186;2024-02-04T08:52:58;15.57;;;13.35;;
32228;SDS011;18717;48.034;11.186;2024-02-04T08:55:25;13.80;;;11.75;;
32228;SDS011;18717;48.034;11.186;2024-02-04T08:57:53;17.58;;;13.30;;
32228;SDS011;18717;48.034;11.186;2024-02-04T09:00:23;17.95;;;12.80;;
32228;SDS011;18717;48.034;11.186;2024-02-04T09:02:50;14.77;;;12.38;;
32228;SDS011;18717;48.034;11.186;2024-02-04T09:05:18;14.77;;;12.40;;
32228;SDS011;18717;48.034;11.186;2024-02-04T09:07:46;15.35;;;13.73;;
32228;SDS011;18717;48.034;11.186;2024-02-04T09:10:14;14.82;;;12.50;;
32228;SDS011;18717;48.034;11.186;2024-02-04T09:12:42;20.38;;;14.88;;
32228;SDS011;18717;48.034;11.186;2024-02-04T09:15:10;16.55;;;13.07;;
32228;SDS011;18717;48.034;11.186;2024-02-04T09:17:39;13.48;;;12.07;;
32228;SDS011;18717;48.034;11.186;2024-02-04T09:20:07;15.95;;;12.50;;
32228;SDS011;18717;48.034;11.186;2024-02-04T09:22:36;15.32;;;12.05;;
32228;SDS011;18717;48.034;11.186;2024-02-04T09:25:05;17.88;;;13.90;;
32228;SDS011;18717;48.034;11.186;2024-02-04T09:27:34;13.90;;;12.50;;
32228;SDS011;18717;48.034;11.186;2024-02-04T09:30:03;16.25;;;13.35;;
32228;SDS011;18717;48.034;11.186;2024-02-04T09:32:32;15.43;;;13.68;;
32228;SDS011;18717;48.034;11.186;2024-02-04T09:35:02;13.55;;;12.27;;
32228;SDS011;18717;48.034;11.186;2024-02-04T09:37:31;14.57;;;12.98;;
32228;SDS011;18717;48.034;11.186;2024-02-04T09:39:59;17.45;;;14.57;;
32228;SDS011;18717;48.034;11.186;2024-02-04T09:42:27;14.23;;;12.77;;
32228;SDS011;18717;48.034;11.186;2024-02-04T09:44:56;17.70;;;13.73;;
32228;SDS011;18717;48.034;11.186;2024-02-04T09:47:23;14.32;;;12.82;;
32228;SDS011;18717;48.034;11.186;2024-02-04T09:49:51;15.38;;;13.60;;
32228;SDS011;18717;48.034;11.186;2024-02-04T09:52:25;16.30;;;12.80;;
32228;SDS011;18717;48.034;11.186;2024-02-04T09:54:59;15.65;;;12.27;;
32228;SDS011;18717;48.034;11.186;2024-02-04T09:57:28;14.50;;;12.63;;
32228;SDS011;18717;48.034;11.186;2024-02-04T09:59:57;13.90;;;12.57;;
32228;SDS011;18717;48.034;11.186;2024-02-04T10:02:24;14.65;;;13.15;;
32228;SDS011;18717;48.034;11.186;2024-02-04T10:04:53;13.57;;;12.30;;
32228;SDS011;18717;48.034;11.186;2024-02-04T10:07:21;16.98;;;12.50;;
32228;SDS011;18717;48.034;11.186;2024-02-04T10:09:52;13.50;;;11.80;;
32228;SDS011;18717;48.034;11.186;2024-02-04T10:12:19;16.20;;;14.65;;
32228;SDS011;18717;48.034;11.186;2024-02-04T10:14:48;14.25;;;12.70;;
32228;SDS011;18717;48.034;11.186;2024-02-04T10:17:16;13.88;;;12.45;;
32228;SDS011;18717;48.034;11.186;2024-02-04T10:19:46;13.80;;;12.50;;
32228;SDS011;18717;48.034;11.186;2024-02-04T10:22:14;14.20;;;12.63;;
32228;SDS011;18717;48.034;11.186;2024-02-04T10:24:43;17.38;;;11.52;;
32228;SDS011;18717;48.034;11.186;2024-02-04T10:27:14;17.85;;;12.25;;
32228;SDS011;18717;48.034;11.186;2024-02-04T10:29:54;14.38;;;11.88;;
32228;SDS011;18717;48.034;11.186;2024-02-04T10:32:22;12.80;;;10.90;;
32228;SDS011;18717;48.034;11.186;2024-02-04T10:34:51;12.20;;;11.20;;
32228;SDS011;18717;48.034;11.186;2024-02-04T10:37:19;12.32;;;11.35;;
32228;SDS011;18717;48.034;11.186;2024-02-04T10:39:47;13.90;;;11.25;;
32228;SDS011;18717;48.034;11.186;2024-02-04T10:42:16;11.60;;;10.60;;
32228;SDS011;18717;48.034;11.186;2024-02-04T10:44:44;12.48;;;11.25;;
32228;SDS011;18717;48.034;11.186;2024-02-04T10:47:15;12.65;;;11.55;;
32228;SDS011;18717;48.034;11.186;2024-02-04T10:49:45;13.57;;;11.68;;
32228;SDS011;18717;48.034;11.186;2024-02-04T10:52:19;12.18;;;11.18;;
32228;SDS011;18717;48.034;11.186;2024-02-04T10:54:48;12.38;;;11.15;;
32228;SDS011;18717;48.034;11.186;2024-02-04T10:57:20;12.95;;;10.95;;
32228;SDS011;18717;48.034;11.186;2024-02-04T10:59:49;12.90;;;10.90;;
32228;SDS011;18717;48.034;11.186;2024-02-04T11:02:19;15.63;;;11.20;;
32228;SDS011;18717;48.034;11.186;2024-02-04T11:04:48;12.95;;;10.68;;
32228;SDS011;18717;48.034;11.186;2024-02-04T11:07:16;11.35;;;10.50;;
32228;SDS011;18717;48.034;11.186;2024-02-04T11:09:45;12.32;;;10.20;;
32228;SDS011;18717;48.034;11.186;2024-02-04T11:12:14;13.70;;;11.55;;
32228;SDS011;18717;48.034;11.186;2024-02-04T11:14:46;14.85;;;9.98;;
32228;SDS011;18717;48.034;11.186;2024-02-04T11:17:20;10.73;;;10.03;;
32228;SDS011;18717;48.034;11.186;2024-02-04T11:19:59;11.38;;;10.15;;
32228;SDS011;18717;48.034;11.186;2024-02-04T11:22:41;10.90;;;10.15;;
32228;SDS011;18717;48.034;11.186;2024-02-04T11:25:21;10.82;;;9.93;;
32228;SDS011;18717;48.034;11.186;2024-02-04T11:28:00;11.70;;;10.90;;
32228;SDS011;18717;48.034;11.186;2024-02-04T11:30:32;10.77;;;9.77;;
32228;SDS011;18717;48.034;11.186;2024-02-04T11:33:00;11.60;;;10.50;;
32228;SDS011;18717;48.034;11.186;2024-02-04T11:35:28;10.40;;;9.50;;
32228;SDS011;18717;48.034;11.186;2024-02-04T11:37:56;14.52;;;10.43;;
32228;SDS011;18717;48.034;11.186;2024-02-04T11:40:29;11.05;;;10.35;;
32228;SDS011;18717;48.034;11.186;2024-02-04T11:43:06;11.10;;;9.20;;
32228;SDS011;18717;48.034;11.186;2024-02-04T11:45:37;12.00;;;10.70;;
32228;SDS011;18717;48.034;11.186;2024-02-04T11:48:06;12.18;;;10.20;;
32228;SDS011;18717;48.034;11.186;2024-02-04T11:50:35;11.10;;;9.77;;
32228;SDS011;18717;48.034;11.186;2024-02-04T11:53:06;11.70;;;10.70;;
32228;SDS011;18717;48.034;11.186;2024-02-04T11:55:35;10.70;;;9.70;;
32228;SDS011;18717;48.034;11.186;2024-02-04T11:58:11;9.98;;;9.25;;
32228;SDS011;18717;48.034;11.186;2024-02-04T12:00:41;10.35;;;9.65;;
32228;SDS011;18717;48.034;11.186;2024-02-04T12:03:10;11.13;;;10.23;;
32228;SDS011;18717;48.034;11.186;2024-02-04T12:05:38;12.13;;;10.02;;
32228;SDS011;18717;48.034;11.186;2024-02-04T12:08:06;11.63;;;9.90;;
32228;SDS011;18717;48.034;11.186;2024-02-04T12:10:44;10.63;;;9.65;;
32228;SDS011;18717;48.034;11.186;2024-02-04T12:13:15;10.93;;;9.95;;
32228;SDS011;18717;48.034;11.186;2024-02-04T12:15:43;11.27;;;10.18;;
32228;SDS011;18717;48.034;11.186;2024-02-04T12:18:11;10.40;;;9.32;;
32228;SDS011;18717;48.034;11.186;2024-02-04T12:20:41;10.48;;;9.73;;
32228;SDS011;18717;48.034;11.186;2024-02-04T12:23:09;10.98;;;9.80;;
32228;SDS011;18717;48.034;11.186;2024-02-04T12:25:37;10.68;;;9.63;;
32228;SDS011;18717;48.034;11.186;2024-02-04T12:28:10;11.70;;;9.32;;
32228;SDS011;18717;48.034;11.186;2024-02-04T12:30:39;10.60;;;9.90;;
32228;SDS011;18717;48.034;11.186;2024-02-04T12:33:07;10.93;;;9.85;;
32228;SDS011;18717;48.034;11.186;2024-02-04T12:35:36;10.85;;;9.98;;
32228;SDS011;18717;48.034;11.186;2024-02-04T12:38:04;10.73;;;9.50;;
32228;SDS011;18717;48.034;11.186;2024-02-04T12:40:34;11.98;;;10.82;;
32228;SDS011;18717;48.034;11.186;2024-02-04T12:43:01;9.88;;;9.07;;
32228;SDS011;18717;48.034;11.186;2024-02-04T12:45:32;10.60;;;9.80;;
32228;SDS011;18717;48.034;11.186;2024-02-04T12:48:02;12.70;;;11.63;;
32228;SDS011;18717;48.034;11.186;2024-02-04T12:50:30;10.18;;;9.35;;
32228;SDS011;18717;48.034;11.186;2024-02-04T12:53:03;10.35;;;9.55;;
32228;SDS011;18717;48.034;11.186;2024-02-04T12:55:32;10.95;;;10.07;;
32228;SDS011;18717;48.034;11.186;2024-02-04T12:58:02;13.88;;;11.07;;
32228;SDS011;18717;48.034;11.186;2024-02-04T13:00:30;10.93;;;10.02;;
32228;SDS011;18717;48.034;11.186;2024-02-04T13:02:59;10.93;;;10.13;;
32228;SDS011;18717;48.034;11.186;2024-02-04T13:05:30;10.60;;;9.90;;
32228;SDS011;18717;48.034;11.186;2024-02-04T13:07:59;10.73;;;9.75;;
32228;SDS011;18717;48.034;11.186;2024-02-04T13:10:31;10.02;;;9.13;;
32228;SDS011;18717;48.034;11.186;2024-02-04T13:13:00;8.27;;;7.53;;
32228;SDS011;18717;48.034;11.186;2024-02-04T13:15:29;11.88;;;10.00;;
32228;SDS011;18717;48.034;11.186;2024-02-04T13:17:57;10.07;;;9.20;;
32228;SDS011;18717;48.034;11.186;2024-02-04T13:20:25;10.68;;;9.98;;
32228;SDS011;18717;48.034;11.186;2024-02-04T13:22:58;10.98;;;10.18;;
32228;SDS011;18717;48.034;11.186;2024-02-04T13:25:30;11.07;;;10.10;;
32228;SDS011;18717;48.034;11.186;2024-02-04T13:27:58;10.05;;;9.38;;
32228;SDS011;18717;48.034;11.186;2024-02-04T13:30:26;11.18;;;10.10;;
32228;SDS011;18717;48.034;11.186;2024-02-04T13:32:54;11.55;;;10.30;;
32228;SDS011;18717;48.034;11.186;2024-02-04T13:35:23;10.80;;;9.73;;
32228;SDS011;18717;48.034;11.186;2024-02-04T13:37:57;10.38;;;9.38;;
32228;SDS011;18717;48.034;11.186;2024-02-04T13:40:47;10.88;;;9.98;;
32228;SDS011;18717;48.034;11.186;2024-02-04T13:43:15;10.48;;;9.80;;
32228;SDS011;18717;48.034;11.186;2024-02-04T13:45:43;9.55;;;9.02;;
32228;SDS011;18717;48.034;11.186;2024-02-04T13:48:10;9.93;;;9.32;;
32228;SDS011;18717;48.034;11.186;2024-02-04T13:50:40;13.02;;;9.80;;
32228;SDS011;18717;48.034;11.186;2024-02-04T13:55:40;10.30;;;9.50;;
32228;SDS011;18717;48.034;11.186;2024-02-04T13:58:09;11.43;;;10.45;;
32228;SDS011;18717;48.034;11.186;2024-02-04T14:00:36;10.18;;;9.35;;
32228;SDS011;18717;48.034;11.186;2024-02-04T14:03:05;10.93;;;10.13;;
32228;SDS011;18717;48.034;11.186;2024-02-04T14:05:34;10.38;;;9.75;;
32228;SDS011;18717;48.034;11.186;2024-02-04T14:08:02;10.23;;;9.48;;
32228;SDS011;18717;48.034;11.186;2024-02-04T14:10:30;10.73;;;9.77;;
32228;SDS011;18717;48.034;11.186;2024-02-04T14:12:58;10.55;;;9.63;;
32228;SDS011;18717;48.034;11.186;2024-02-04T14:15:27;10.93;;;9.90;;
32228;SDS011;18717;48.034;11.186;2024-02-04T14:17:55;10.85;;;10.00;;
32228;SDS011;18717;48.034;11.186;2024-02-04T14:20:23;10.90;;;10.15;;
32228;SDS011;18717;48.034;11.186;2024-02-04T14:22:51;11.63;;;10.32;;
32228;SDS011;18717;48.034;11.186;2024-02-04T14:25:19;10.27;;;9.38;;